Latest Coastal Weather Observations for St Helens

IDT60701

Issued at 4:52 am EST Thursday 3 September 2026 (issued every 10 minutes, with the page automatically refreshed every 10 minutes)

About coastal observations | Map of coastal stations | Coastal observations for TAS | Marine services | Other Formats
Station Details ID: 092120 Name: ST HELENS AERODROME Lat: -41.34 Lon: 148.28 Height: 48.0 m
Data from the previous 72 hours. | See also: Recent months at St Helens
Date/Time
EST
Wind Sea
Height
m
Swell Vis
km
Cloud Weather Temp
°C
Press
MSL
hPa
Rain since
9am
mm
Dir  Spd
kts
Gust
kts
Height
m
Period
s
Dir
03/04:35am WNW 13 24 - - - - 10 Partly cloudy - 13.2 998.3 0.0
03/04:30am WNW 12 30 - - - - 10 Partly cloudy - 13.2 998.2 0.0
03/04:09am NW 15 27 - - - - 10 Mostly clear - 12.7 998.7 0.0
03/04:00am WNW 12 20 - - - - 10 Partly cloudy - 12.5 998.6 0.0
03/03:50am WNW 15 28 - - - - 10 Partly cloudy - 12.7 998.7 0.0
03/03:30am NW 12 19 - - - - 10 Partly cloudy - 12.3 999.3 0.0
03/03:00am NW 12 27 - - - - 10 Cloudy - 12.5 999.8 0.0
03/02:30am NW 10 18 - - - - 10 Cloudy - 13.0 1000.3 0.0
03/02:00am NW 11 21 - - - - 10 Cloudy - 13.2 1001.2 0.0
03/01:30am WNW 11 18 - - - - 10 Cloudy - 13.1 1001.6 0.0
03/01:00am NW 8 14 - - - - 10 Partly cloudy - 12.5 1002.0 0.0
03/12:30am NW 14 24 - - - - 10 Partly cloudy - 13.0 1002.3 0.0
03/12:00am NNW 10 15 - - - - 10 Cloudy - 12.2 1002.8 0.0
 
Date/Time
EST
Wind Sea
Height
m
Swell Vis
km
Cloud Weather Temp
°C
Press
MSL
hPa
Rain since
9am
mm
Dir  Spd
kts
Gust
kts
Height
m
Period
s
Dir
02/11:30pm NNW 10 16 - - - - 10 Partly cloudy - 12.1 1003.5 0.0
02/11:00pm NW 11 16 - - - - 10 Partly cloudy - 12.1 1004.0 0.0
02/10:30pm WNW 13 23 - - - - 10 - - 12.1 1004.4 0.0
02/10:00pm WNW 14 23 - - - - 10 - - 12.0 1004.6 0.0
02/09:30pm WNW 12 21 - - - - 10 - - 12.0 1004.9 0.0
02/09:00pm WNW 12 23 - - - - 10 - - 12.0 1005.1 0.0
02/08:30pm WNW 11 19 - - - - 10 - - 11.9 1005.4 0.0
02/08:00pm WNW 9 15 - - - - 10 Mostly clear - 12.0 1005.2 0.0
02/07:30pm WNW 11 21 - - - - 10 Partly cloudy - 12.1 1005.4 0.0
02/07:00pm WNW 12 23 - - - - 10 Mostly clear - 12.3 1005.3 0.0
02/06:30pm NW 11 19 - - - - 10 Partly cloudy - 12.4 1005.3 0.0
02/06:00pm NW 8 13 - - - - 10 Mostly cloudy - 12.9 1005.6 0.0
02/05:30pm NW 9 18 - - - - 10 Partly cloudy - 13.2 1005.4 0.0
02/05:00pm NW 10 16 - - - - 10 Partly cloudy - 13.8 1005.2 0.0
02/04:30pm W 9 14 - - - - 10 Partly cloudy - 13.7 1005.3 0.0
02/04:00pm W 10 19 - - - - 10 Partly cloudy - 13.6 1005.2 0.0
02/03:30pm W 9 22 - - - - 10 Cloudy - 14.1 1005.4 0.0
02/03:00pm WSW 8 19 - - - - 10 Mostly cloudy - 15.4 1005.5 0.0
02/02:30pm W 11 18 - - - - 10 Cloudy - 15.2 1005.5 0.0
02/02:00pm W 9 17 - - - - 10 Cloudy - 14.8 1005.4 0.0
02/01:30pm WSW 8 16 - - - - 10 Partly cloudy - 15.7 1005.8 0.0
02/01:00pm W 13 26 - - - - 10 Partly cloudy - 14.9 1006.1 0.0
02/12:30pm W 13 23 - - - - 10 - - 15.0 1006.3 0.0
02/12:00pm W 12 20 - - - - 10 - - 15.2 1006.7 0.0
02/11:30am WSW 13 23 - - - - 10 - - 14.5 1007.1 0.0
02/11:00am W 13 23 - - - - 10 - - 14.4 1007.5 0.0
02/10:30am WSW 12 20 - - - - 10 - - 14.1 1007.5 0.0
02/10:00am W 10 16 - - - - 10 - - 13.9 1007.6 0.0
02/09:30am W 9 18 - - - - 10 - - 13.2 1007.8 0.0
02/09:00am WNW 8 16 - - - - 10 - - 12.2 1008.0 0.0
02/08:30am NW 7 11 - - - - 10 - - 11.5 1008.2 0.0
02/08:00am N 5 8 - - - - 10 - - 10.6 1008.1 0.0
02/07:30am NNW 4 6 - - - - 10 - - 10.1 1007.8 0.0
02/07:00am NW 6 8 - - - - 10 - - 9.9 1007.6 0.0
02/06:30am NW 6 9 - - - - 10 - - 10.3 1007.1 0.0
02/06:00am NW 6 11 - - - - 10 - - 10.7 1006.6 0.0
02/05:30am NW 5 7 - - - - 10 - - 10.8 1006.1 0.0
02/05:00am WNW 4 7 - - - - 10 - - 10.7 1005.8 0.0
02/04:30am WNW 4 8 - - - - 10 - - 11.5 1005.3 0.0
02/04:00am NW 7 11 - - - - 10 - - 12.1 1004.7 0.0
02/03:30am W 7 16 - - - - 10 - - 12.9 1004.3 0.0
02/03:00am WNW 11 20 - - - - 10 - - 13.6 1004.2 0.0
02/02:30am NW 13 21 - - - - 10 - - 14.1 1004.0 0.0
02/02:00am NNW 8 12 - - - - 10 - - 14.0 1004.7 0.0
02/01:30am NNW 7 12 - - - - 10 Mostly clear - 14.0 1004.9 0.0
02/01:00am WNW 9 14 - - - - 10 Partly cloudy - 14.4 1004.9 0.0
02/12:30am WNW 11 21 - - - - 10 Partly cloudy - 14.7 1004.6 0.0
02/12:00am NW 12 21 - - - - 10 Cloudy - 14.1 1004.9 0.0
 
Date/Time
EST
Wind Sea
Height
m
Swell Vis
km
Cloud Weather Temp
°C
Press
MSL
hPa
Rain since
9am
mm
Dir  Spd
kts
Gust
kts
Height
m
Period
s
Dir
01/11:30pm NW 12 20 - - - - 10 Partly cloudy - 14.5 1004.7 0.0
01/11:00pm WNW 13 22 - - - - 10 Partly cloudy - 14.9 1005.1 0.0
01/10:52pm WNW 12 23 - - - - 10 Partly cloudy - 14.9 1005.0 0.0
01/10:49pm WNW 13 25 - - - - 10 Partly cloudy - 14.9 1005.1 0.0
01/10:39pm NW 15 30 - - - - 10 Cloudy - 15.0 1005.0 0.0
01/10:30pm WNW 10 19 - - - - 10 Partly cloudy - 14.9 1005.3 0.0
01/10:03pm WNW 12 26 - - - - 10 Mostly clear - 14.5 1004.5 0.0
01/10:00pm W 13 26 - - - - 10 Partly cloudy - 14.5 1004.3 0.0
01/09:39pm WNW 15 29 - - - - 10 Partly cloudy - 14.7 1004.4 0.0
01/09:35pm WNW 13 26 - - - - 10 Partly cloudy - 14.6 1004.6 0.0
01/09:30pm W 13 30 - - - - 10 Partly cloudy - 14.5 1004.5 0.0
01/09:17pm WNW 15 29 - - - - 10 Partly cloudy - 14.7 1004.4 0.0
01/09:00pm WNW 13 29 - - - - 10 Mostly cloudy - 14.6 1004.6 0.0
01/08:30pm WNW 11 21 - - - - 10 Cloudy - 14.8 1005.5 0.0
01/08:00pm WNW 12 24 - - - - 10 Cloudy - 15.2 1005.6 0.0
01/07:30pm WNW 12 24 - - - - 10 Partly cloudy - 15.8 1005.8 0.0
01/07:20pm WNW 12 23 - - - - 10 Partly cloudy - 15.8 1005.9 0.0
01/07:00pm WNW 16 34 - - - - 10 Partly cloudy - 16.3 1005.6 0.0
01/06:49pm W 13 27 - - - - 10 Mostly clear - 16.2 1005.5 0.0
01/06:30pm WNW 13 27 - - - - 10 Partly cloudy - 15.9 1005.4 0.0
01/06:10pm WNW 13 22 - - - - 10 - - 15.1 1005.7 0.0
01/06:00pm WNW 15 26 - - - - 10 - - 15.3 1005.8 0.0
01/05:30pm WNW 15 27 - - - - 10 Partly cloudy - 15.4 1006.2 0.0
01/05:00pm WNW 17 35 - - - - 10 Mostly clear - 16.3 1006.5 0.0
01/04:51pm WNW 15 35 - - - - 10 - - 16.5 1006.3 0.0
01/04:49pm W 13 34 - - - - 10 - - 16.5 1006.3 0.0
01/04:36pm WNW 15 31 - - - - 10 Mostly clear - 16.7 1006.6 0.0
01/04:30pm W 13 23 - - - - 10 - - 16.7 1006.7 0.0
01/04:00pm W 11 23 - - - - 10 - - 16.6 1006.9 0.0
01/03:30pm W 13 32 - - - - 10 - - 17.1 1007.5 0.0
01/03:28pm W 13 32 - - - - 10 - - 17.0 1007.5 0.0
01/03:02pm W 15 28 - - - - 10 - - 17.0 1008.0 0.0
01/03:00pm W 14 26 - - - - 10 - - 16.8 1008.0 0.0
01/02:41pm W 14 25 - - - - 10 - - 16.8 1007.9 0.0
01/02:30pm W 15 27 - - - - 10 - - 16.8 1007.9 0.0
01/02:29pm W 15 27 - - - - 10 - - 16.8 1008.0 0.0
01/02:27pm W 14 24 - - - - 10 - - 16.7 1008.0 0.0
01/02:17pm W 15 25 - - - - 10 Mostly clear - 16.6 1008.1 0.0
01/02:00pm W 10 19 - - - - 10 Partly cloudy - 16.8 1008.6 0.0
01/01:30pm W 14 26 - - - - 10 Partly cloudy - 16.6 1009.4 0.0
01/01:07pm W 12 23 - - - - 10 Partly cloudy - 16.6 1010.2 0.0
01/01:00pm WNW 14 27 - - - - 10 Partly cloudy - 16.5 1010.4 0.0
01/12:57pm WNW 15 27 - - - - 10 Partly cloudy - 16.6 1010.5 0.0
01/12:30pm W 11 20 - - - - 10 Partly cloudy - 16.4 1011.4 0.0
01/12:00pm W 11 23 - - - - 10 Mostly clear - 16.2 1012.4 0.0
01/11:30am WNW 8 17 - - - - 10 Mostly clear - 16.1 1013.0 0.0
01/11:00am WNW 11 22 - - - - 10 Partly cloudy - 15.9 1013.7 0.0
01/10:30am NW 5 10 - - - - 10 Mostly clear - 15.4 1014.3 0.0
01/10:00am W 6 9 - - - - 10 - - 14.1 1014.7 0.0
01/09:30am WNW 10 16 - - - - 10 - - 13.2 1015.4 0.0
01/09:00am W 8 15 - - - - 10 - - 12.8 1015.8 0.0
01/08:30am N 6 9 - - - - 10 - - 11.9 1016.0 0.0
01/08:00am NNW 5 8 - - - - 10 - - 11.3 1016.3 0.0
01/07:30am NNE 7 15 - - - - 10 - - 11.0 1016.6 0.0
01/07:00am NW 6 11 - - - - 10 - - 10.7 1016.5 0.0
01/06:30am N 9 14 - - - - 10 - - 10.1 1016.8 0.0
01/06:00am NNW 7 11 - - - - 10 - - 8.1 1017.1 0.0
01/05:30am NNW 3 6 - - - - 10 - - 7.0 1017.6 0.0
01/05:00am NNW 3 5 - - - - 10 - - 7.7 1017.9 0.0
01/04:30am N 6 9 - - - - 10 - - 8.9 1018.2 0.0
01/04:00am N 8 12 - - - - 10 - - 9.3 1018.6 0.0
01/03:30am N 9 12 - - - - 10 - - 9.4 1019.0 0.0
01/03:00am N 7 12 - - - - 10 - - 9.7 1019.5 0.0
01/02:30am NW 2 6 - - - - 10 - - 8.2 1020.2 0.0
01/02:00am WNW 5 8 - - - - 10 - - 8.7 1020.7 0.0
01/01:30am NNW 6 10 - - - - 10 - - 9.3 1021.1 0.0
01/01:00am NNW 4 7 - - - - 10 - - 8.9 1021.2 0.0
01/12:30am NW 5 7 - - - - 10 - - 9.4 1021.6 0.0
01/12:00am WNW 4 7 - - - - 10 - - 9.1 1022.0 0.0
 
Date/Time
EST
Wind Sea
Height
m
Swell Vis
km
Cloud Weather Temp
°C
Press
MSL
hPa
Rain since
9am
mm
Dir  Spd
kts
Gust
kts
Height
m
Period
s
Dir
31/11:30pm WNW 7 9 - - - - 10 - - 9.6 1022.0 0.0
31/11:00pm W 7 12 - - - - 10 - - 9.6 1022.3 0.0
31/10:30pm NW 8 13 - - - - 10 - - 9.7 1022.5 0.0
31/10:00pm NW 9 14 - - - - 10 - - 9.9 1022.5 0.0
31/09:30pm WNW 7 13 - - - - 10 - - 10.3 1022.8 0.0
31/09:00pm WSW 6 14 - - - - 10 - - 10.5 1022.6 0.0
31/08:30pm W 6 9 - - - - 10 - - 11.0 1022.9 0.0
31/08:00pm W 5 10 - - - - 10 - - 12.1 1023.1 0.0
31/07:30pm W 7 13 - - - - 10 - - 13.1 1023.1 0.0
31/07:00pm W 7 11 - - - - 10 - - 13.8 1023.1 0.0
31/06:30pm W 6 10 - - - - 10 - - 14.0 1023.1 0.0
31/06:00pm WNW 8 11 - - - - 10 - - 15.1 1023.1 0.0
31/05:30pm WNW 7 11 - - - - 10 - - 16.6 1023.0 0.0
31/05:00pm W 5 8 - - - - 10 - - 19.0 1023.0 0.0
31/04:30pm ENE 1 3 - - - - 10 - - 18.3 1023.2 0.0
31/04:00pm S 1 3 - - - - 10 - - 19.5 1023.3 0.0
31/03:30pm E 1 5 - - - - 10 - - 20.3 1023.4 0.0
31/03:00pm ENE 2 5 - - - - 10 - - 19.9 1023.7 0.0
31/02:30pm ENE 4 6 - - - - 10 - - 19.4 1024.0 0.0
31/02:00pm ENE 4 7 - - - - 10 - - 19.3 1024.3 0.0
31/01:30pm ENE 4 6 - - - - 10 - - 18.3 1024.6 0.0
31/01:00pm E 5 7 - - - - 10 - - 17.8 1025.2 0.0
31/12:30pm E 6 8 - - - - 10 - - 17.6 1025.6 0.0
31/12:00pm E 6 10 - - - - 10 - - 17.2 1026.2 0.0
31/11:30am E 6 9 - - - - 10 - - 17.6 1026.4 0.0
31/11:00am E 4 7 - - - - 10 - - 17.4 1026.6 0.0
31/10:30am WNW 2 3 - - - - 10 - - 16.4 1026.9 0.0
31/10:00am NNW 2 4 - - - - 10 - - 15.1 1027.0 0.0
31/09:30am NW 5 6 - - - - 10 - - 12.4 1027.1 0.0
31/09:00am NW 6 8 - - - - 10 - - 10.9 1027.0 0.0
31/08:30am NNW 6 8 - - - - 10 - - 9.2 1027.1 0.0
31/08:00am NNW 7 8 - - - - 10 - - 7.3 1026.9 0.0
31/07:30am NNW 6 8 - - - - 10 - - 6.4 1026.6 0.0
31/07:00am NNW 6 7 - - - - 10 - - 5.8 1026.3 0.0
31/06:30am NNW 6 7 - - - - 10 - - 6.4 1025.9 0.0
31/06:00am NW 6 8 - - - - 10 - - 6.4 1025.7 0.0
31/05:30am NW 7 8 - - - - 10 - - 6.0 1025.5 0.0
31/05:00am NNW 6 7 - - - - 10 - - 7.2 1025.3 0.0

Other formats

Comma delimited format used in spreadsheet applications
http://www.bom.gov.au/fwo/IDT60701/IDT60701.95981.axf

JavaScript Object Notation format (JSON) in row-major order
http://www.bom.gov.au/fwo/IDT60701/IDT60701.95981.json

Data quality

Most of these data are generated automatically and are frequently updated. Quality checks on data are not normally performed. It is possible for incorrect values to appear. Refer to information at About Latest Weather Observations and please check the disclaimer before using these data.